Главная страница
METAR-TAF:

METAR-TAF

Аэропорты :

Урмия, Иран

широта: 37-32N, долгота: 045-05E, высота над уровнем моря: 1297 м

Текущие метеонаблюдения

Эта сводка был подготовлена 30 минут назад, в 15:00 UTC
Ветер 2 Узел от северо-северо-восточный
Температура 0°C
Влажность 74%
Давление 1023 hPa
Видимость 10 км и более
Нет облачности ниже 1500 м, и нет кучево-дождевой облачности

METAR: OITR 031500Z 02002KT CAVOK 00/M04 Q1023

Время: 19:00 (15:30 UTC)

Прогноз

Эта сводка был подготовлена 4 часа и 30 минут назад, в 11:00 UTC
Прогноз действительный с 03-го 12 UTC до 04-го 18 UTC
Ветер 6 Узел от юго-юго-восточный
Видимость 10 км и более
Нет облачности ниже 1500 м, и нет кучево-дождевой облачности

TAF: OITR 031100Z 0312/0418 15006KT CAVOK

Метеонаблюдения и прогнозы для более 4000 аэропортов (сводки METAR и TAF).

Имеющиеся станции представлены на карте желтыми и красными точками.

Чтобы увидеть название станции, наведите на нее мышь.

Затем щелкните, чтобы увидеть метеонаблюдения и метеопрогнозы.

Управление картой: чтобы увеличить масштаб, щелкните зеленые кнопки с черным крестиком; чтобы уменьшить масштаб, щелкните зеленую кнопку с тире; для просмотра соседних карт щелкайте зеленые стрелки.


METAR-TAF: